createdAt,value
2023-01-11T00:00:01.175Z,254.9
2023-01-11T00:05:01.210Z,282.8
2023-01-11T00:10:01.173Z,271.8
2023-01-11T00:15:01.291Z,249.0
2023-01-11T00:20:01.153Z,251.0
2023-01-11T00:25:01.280Z,255.8
2023-01-11T00:30:01.185Z,218.5
2023-01-11T00:35:01.425Z,201.1
2023-01-11T00:40:01.166Z,195.4
2023-01-11T00:45:01.251Z,181.3
2023-01-11T00:50:01.223Z,173.3
2023-01-11T00:55:01.293Z,172.8
2023-01-11T01:00:01.169Z,179.3
2023-01-11T01:10:01.293Z,185.0
2023-01-11T01:15:01.294Z,200.3
2023-01-11T01:20:01.155Z,194.3
2023-01-11T01:25:01.277Z,185.6
2023-01-11T01:30:01.302Z,184.4
2023-01-11T01:40:01.178Z,188.3
2023-01-11T01:45:01.246Z,205.7
2023-01-11T01:50:01.133Z,205.9
2023-01-11T01:55:01.181Z,208.5
2023-01-11T02:00:01.112Z,249.8
2023-01-11T02:10:01.215Z,251.5
2023-01-11T02:15:01.241Z,227.4
2023-01-11T02:20:01.447Z,260.1
2023-01-11T02:25:01.189Z,263.7
2023-01-11T02:40:04.283Z,256.6
2023-01-11T03:00:01.245Z,140.4
2023-01-11T03:05:02.298Z,146.3
2023-01-11T03:10:01.181Z,146.1
2023-01-11T03:30:00.817Z,139.4
2023-01-11T03:35:00.812Z,136.0
2023-01-11T03:50:01.340Z,187.8
2023-01-11T03:55:01.333Z,192.0
2023-01-11T04:00:02.629Z,159.9
2023-01-11T04:05:01.287Z,143.2
2023-01-11T04:10:01.220Z,139.1
2023-01-11T04:15:01.272Z,121.5
2023-01-11T04:20:01.191Z,102.1
2023-01-11T04:25:02.287Z,103.8
2023-01-11T04:30:01.236Z,107.6
2023-01-11T04:35:03.300Z,105.4
2023-01-11T04:40:01.181Z,110.5
2023-01-11T04:45:01.372Z,121.5
2023-01-11T04:50:01.340Z,126.7
2023-01-11T04:55:01.285Z,131.7
2023-01-11T05:00:01.209Z,132.3
2023-01-11T05:05:01.623Z,123.9
2023-01-11T05:10:01.436Z,110.6
2023-01-11T05:30:06.626Z,91.4
2023-01-11T05:35:01.456Z,92.7
2023-01-11T05:40:02.480Z,94.7
2023-01-11T05:45:01.513Z,96.6
2023-01-11T05:50:01.548Z,97.4
2023-01-11T05:55:06.604Z,98.9
2023-01-11T06:00:01.413Z,97.3
2023-01-11T06:05:01.440Z,95.8
2023-01-11T06:10:01.732Z,93.4
2023-01-11T06:15:01.567Z,93.6
2023-01-11T06:20:06.384Z,102.8
2023-01-11T06:25:02.547Z,116.9
2023-01-11T06:30:08.545Z,125.2
2023-01-11T06:35:01.566Z,136.6
2023-01-11T06:40:01.589Z,142.2
2023-01-11T06:45:02.505Z,137.8
2023-01-11T06:50:01.335Z,131.4
2023-01-11T06:55:01.437Z,129.4
2023-01-11T07:00:01.303Z,121.6
2023-01-11T07:05:01.462Z,117.3
2023-01-11T07:10:01.467Z,116.2
2023-01-11T07:15:01.333Z,113.2
2023-01-11T07:20:01.262Z,110.8
2023-01-11T07:25:01.308Z,112.7
2023-01-11T07:30:01.364Z,112.6
2023-01-11T07:35:01.297Z,117.9
2023-01-11T07:40:01.234Z,115.9
2023-01-11T07:45:02.429Z,113.2
2023-01-11T07:50:01.308Z,106.7
2023-01-11T07:55:01.361Z,101.5
2023-01-11T08:00:01.313Z,90.2
2023-01-11T08:05:03.133Z,108.3
2023-01-11T08:10:01.504Z,107.7
2023-01-11T08:15:01.382Z,110.0
2023-01-11T08:20:01.399Z,113.4
2023-01-11T08:25:01.453Z,115.9
2023-01-11T08:30:01.407Z,98.8
2023-01-11T08:35:02.788Z,100.6
2023-01-11T08:40:01.487Z,104.2
2023-01-11T08:45:01.420Z,107.6
2023-01-11T08:50:01.356Z,107.4
2023-01-11T08:55:01.361Z,120.2
2023-01-11T09:00:01.290Z,118.2
2023-01-11T09:05:01.348Z,113.9
2023-01-11T09:10:01.319Z,109.9
2023-01-11T09:15:01.397Z,109.8
2023-01-11T09:20:01.266Z,95.6
2023-01-11T09:25:01.403Z,96.8
2023-01-11T09:30:01.335Z,101.0
2023-01-11T09:35:01.391Z,103.7
2023-01-11T09:40:01.255Z,104.9
2023-01-11T09:45:01.331Z,107.3
2023-01-11T09:50:01.317Z,108.4
2023-01-11T09:55:01.426Z,108.1
2023-01-11T10:00:01.441Z,112.5
2023-01-11T10:20:02.264Z,131.2
2023-01-11T10:25:02.780Z,136.6
2023-01-11T10:30:02.031Z,133.7
2023-01-11T10:35:02.836Z,136.0
2023-01-11T10:40:01.886Z,135.8
2023-01-11T10:45:01.578Z,147.2
2023-01-11T10:50:02.951Z,138.2
2023-01-11T11:10:02.599Z,140.4
2023-01-11T11:15:01.395Z,139.3
2023-01-11T11:30:01.022Z,216.0
2023-01-11T11:35:00.936Z,187.8
2023-01-11T11:40:00.798Z,168.1
2023-01-11T11:45:00.843Z,166.2
2023-01-11T11:50:00.864Z,162.8
2023-01-11T12:10:01.603Z,143.2
2023-01-11T12:15:01.631Z,140.4
2023-01-11T12:20:01.508Z,139.1
2023-01-11T12:40:06.139Z,132.4
2023-01-11T12:45:01.131Z,138.9
2023-01-11T12:50:01.065Z,141.1
2023-01-11T13:10:01.963Z,158.4
2023-01-11T13:30:01.263Z,104.4
2023-01-11T13:35:01.278Z,106.6
2023-01-11T13:40:01.168Z,105.6
2023-01-11T13:45:01.248Z,113.3
2023-01-11T13:50:01.237Z,113.7
2023-01-11T13:55:01.290Z,123.4
2023-01-11T14:00:01.124Z,135.4
2023-01-11T14:20:01.092Z,104.2
2023-01-11T14:40:01.591Z,212.6
2023-01-11T15:00:00.884Z,100.0
2023-01-11T15:05:00.832Z,99.1
2023-01-11T15:10:00.881Z,109.6
2023-01-11T15:15:00.866Z,119.6
2023-01-11T15:20:00.847Z,119.9
2023-01-11T15:25:05.896Z,142.5
2023-01-11T15:40:01.756Z,144.6
2023-01-11T15:45:01.619Z,153.9
2023-01-11T16:00:01.177Z,141.4
2023-01-11T16:20:01.602Z,217.8
2023-01-11T16:40:01.051Z,165.6
2023-01-11T16:45:02.067Z,196.3
2023-01-11T16:50:00.904Z,253.1
2023-01-11T17:10:01.688Z,319.6
2023-01-11T17:30:01.151Z,186.2
2023-01-11T17:35:00.958Z,216.3
2023-01-11T17:40:00.867Z,228.1
2023-01-11T17:45:00.922Z,246.9
2023-01-11T17:50:00.882Z,259.2
2023-01-11T17:55:00.913Z,258.1
2023-01-11T18:10:03.709Z,236.2
2023-01-11T18:15:02.036Z,266.9
2023-01-11T18:20:01.674Z,294.2
2023-01-11T18:40:01.234Z,306.0
2023-01-11T18:45:01.292Z,390.2
2023-01-11T18:50:01.102Z,316.7
2023-01-11T18:55:01.179Z,281.9
2023-01-11T19:00:01.139Z,267.0
2023-01-11T19:05:01.227Z,255.4
2023-01-11T19:10:01.207Z,201.6
2023-01-11T19:15:01.152Z,220.4
2023-01-11T19:25:01.248Z,258.5
2023-01-11T19:30:01.101Z,299.8
2023-01-11T19:40:01.197Z,308.1
2023-01-11T19:45:01.246Z,334.6
2023-01-11T19:50:01.120Z,371.1
2023-01-11T19:55:01.478Z,336.2
2023-01-11T20:00:01.228Z,327.3
2023-01-11T20:05:01.269Z,370.9
2023-01-11T20:10:01.183Z,334.1
2023-01-11T20:15:01.368Z,313.6
2023-01-11T20:20:01.198Z,352.0
2023-01-11T20:25:01.326Z,363.6
2023-01-11T20:30:01.160Z,307.1
2023-01-11T20:35:01.286Z,331.8
2023-01-11T20:40:01.155Z,337.8
2023-01-11T20:45:04.896Z,337.6
2023-01-11T20:50:01.315Z,308.3
2023-01-11T20:55:01.433Z,311.6
2023-01-11T21:00:01.451Z,316.4
2023-01-11T21:05:01.262Z,325.8
2023-01-11T21:10:01.176Z,309.0
2023-01-11T21:20:01.380Z,308.3
2023-01-11T21:25:01.278Z,355.4
2023-01-11T21:30:01.171Z,350.6
2023-01-11T21:35:01.312Z,324.3
2023-01-11T21:40:01.188Z,331.1
2023-01-11T21:45:01.296Z,377.5
2023-01-11T21:50:01.251Z,360.8
2023-01-11T21:55:01.213Z,370.3
2023-01-11T22:00:01.620Z,388.5
2023-01-11T22:05:01.310Z,368.1
2023-01-11T22:10:05.359Z,334.7
2023-01-11T22:20:01.229Z,352.7
2023-01-11T22:25:01.263Z,340.2
2023-01-11T22:30:01.152Z,320.8
2023-01-11T22:35:01.304Z,358.0
2023-01-11T22:40:01.784Z,315.0
2023-01-11T22:45:01.261Z,253.6
2023-01-11T22:50:01.145Z,241.3
2023-01-11T22:55:01.281Z,206.1
2023-01-11T23:00:01.161Z,194.0
2023-01-11T23:05:01.259Z,196.7
2023-01-11T23:15:01.211Z,218.5
2023-01-11T23:20:01.151Z,238.0
2023-01-11T23:25:01.299Z,280.3
2023-01-11T23:30:01.213Z,256.2
2023-01-11T23:35:01.213Z,261.7
2023-01-11T23:40:01.158Z,243.2
2023-01-11T23:45:01.245Z,227.7
2023-01-11T23:50:01.258Z,212.5
2023-01-11T23:55:01.310Z,213.1
